sensor_id;sensor_type;location;lat;lon;timestamp;P1;durP1;ratioP1;P2;durP2;ratioP2
19903;SDS011;10114;50.970;4.962;2023-04-23T00:01:02;42.38;;;21.48;;
19903;SDS011;10114;50.970;4.962;2023-04-23T00:03:29;41.60;;;22.17;;
19903;SDS011;10114;50.970;4.962;2023-04-23T00:05:57;44.83;;;22.38;;
19903;SDS011;10114;50.970;4.962;2023-04-23T00:08:23;40.60;;;21.90;;
19903;SDS011;10114;50.970;4.962;2023-04-23T00:10:50;44.33;;;22.00;;
19903;SDS011;10114;50.970;4.962;2023-04-23T00:13:16;46.63;;;22.40;;
19903;SDS011;10114;50.970;4.962;2023-04-23T00:15:42;42.60;;;21.83;;
19903;SDS011;10114;50.970;4.962;2023-04-23T00:18:08;41.03;;;21.67;;
19903;SDS011;10114;50.970;4.962;2023-04-23T00:20:34;42.72;;;21.88;;
19903;SDS011;10114;50.970;4.962;2023-04-23T00:23:01;42.05;;;21.67;;
19903;SDS011;10114;50.970;4.962;2023-04-23T00:25:27;40.42;;;20.60;;
19903;SDS011;10114;50.970;4.962;2023-04-23T00:27:53;43.15;;;21.27;;
19903;SDS011;10114;50.970;4.962;2023-04-23T00:30:19;39.95;;;21.48;;
19903;SDS011;10114;50.970;4.962;2023-04-23T00:32:45;41.15;;;21.05;;
19903;SDS011;10114;50.970;4.962;2023-04-23T00:35:11;44.92;;;21.35;;
19903;SDS011;10114;50.970;4.962;2023-04-23T00:37:37;42.83;;;22.63;;
19903;SDS011;10114;50.970;4.962;2023-04-23T00:40:03;40.13;;;21.38;;
19903;SDS011;10114;50.970;4.962;2023-04-23T00:42:30;39.13;;;20.55;;
19903;SDS011;10114;50.970;4.962;2023-04-23T00:44:56;43.30;;;22.13;;
19903;SDS011;10114;50.970;4.962;2023-04-23T00:47:22;39.13;;;21.75;;
19903;SDS011;10114;50.970;4.962;2023-04-23T00:49:48;39.33;;;20.10;;
19903;SDS011;10114;50.970;4.962;2023-04-23T00:52:15;37.67;;;20.75;;
19903;SDS011;10114;50.970;4.962;2023-04-23T00:54:41;39.63;;;20.33;;
19903;SDS011;10114;50.970;4.962;2023-04-23T00:57:07;39.28;;;21.33;;
19903;SDS011;10114;50.970;4.962;2023-04-23T00:59:33;42.90;;;20.92;;
19903;SDS011;10114;50.970;4.962;2023-04-23T01:02:00;39.03;;;21.15;;
19903;SDS011;10114;50.970;4.962;2023-04-23T01:04:26;43.08;;;20.75;;
19903;SDS011;10114;50.970;4.962;2023-04-23T01:06:53;36.10;;;19.83;;
19903;SDS011;10114;50.970;4.962;2023-04-23T01:09:19;39.30;;;20.98;;
19903;SDS011;10114;50.970;4.962;2023-04-23T01:11:46;38.25;;;20.98;;
19903;SDS011;10114;50.970;4.962;2023-04-23T01:14:13;38.00;;;21.13;;
19903;SDS011;10114;50.970;4.962;2023-04-23T01:16:39;34.85;;;19.38;;
19903;SDS011;10114;50.970;4.962;2023-04-23T01:19:05;35.28;;;19.55;;
19903;SDS011;10114;50.970;4.962;2023-04-23T01:21:33;36.28;;;20.27;;
19903;SDS011;10114;50.970;4.962;2023-04-23T01:23:59;38.60;;;20.60;;
19903;SDS011;10114;50.970;4.962;2023-04-23T01:26:25;32.92;;;18.15;;
19903;SDS011;10114;50.970;4.962;2023-04-23T01:28:51;34.42;;;18.85;;
19903;SDS011;10114;50.970;4.962;2023-04-23T01:31:17;34.70;;;19.77;;
19903;SDS011;10114;50.970;4.962;2023-04-23T01:33:43;32.53;;;18.00;;
19903;SDS011;10114;50.970;4.962;2023-04-23T01:36:10;30.38;;;16.55;;
19903;SDS011;10114;50.970;4.962;2023-04-23T01:38:37;30.92;;;18.63;;
19903;SDS011;10114;50.970;4.962;2023-04-23T01:41:03;31.67;;;18.15;;
19903;SDS011;10114;50.970;4.962;2023-04-23T01:43:30;34.60;;;17.65;;
19903;SDS011;10114;50.970;4.962;2023-04-23T01:45:56;29.02;;;17.35;;
19903;SDS011;10114;50.970;4.962;2023-04-23T01:48:23;36.00;;;17.38;;
19903;SDS011;10114;50.970;4.962;2023-04-23T01:50:50;31.00;;;17.27;;
19903;SDS011;10114;50.970;4.962;2023-04-23T01:53:16;30.73;;;17.38;;
19903;SDS011;10114;50.970;4.962;2023-04-23T01:55:44;26.77;;;16.30;;
19903;SDS011;10114;50.970;4.962;2023-04-23T01:58:10;28.33;;;16.42;;
19903;SDS011;10114;50.970;4.962;2023-04-23T02:00:36;30.70;;;17.08;;
19903;SDS011;10114;50.970;4.962;2023-04-23T02:03:02;32.15;;;17.23;;
19903;SDS011;10114;50.970;4.962;2023-04-23T02:05:29;30.75;;;17.38;;
19903;SDS011;10114;50.970;4.962;2023-04-23T02:07:55;33.83;;;17.13;;
19903;SDS011;10114;50.970;4.962;2023-04-23T02:10:21;26.92;;;16.00;;
19903;SDS011;10114;50.970;4.962;2023-04-23T02:12:47;28.48;;;15.27;;
19903;SDS011;10114;50.970;4.962;2023-04-23T02:15:13;28.25;;;15.63;;
19903;SDS011;10114;50.970;4.962;2023-04-23T02:17:40;28.30;;;16.63;;
19903;SDS011;10114;50.970;4.962;2023-04-23T02:20:07;25.63;;;15.45;;
19903;SDS011;10114;50.970;4.962;2023-04-23T02:22:34;24.83;;;14.48;;
19903;SDS011;10114;50.970;4.962;2023-04-23T02:25:00;26.13;;;14.35;;
19903;SDS011;10114;50.970;4.962;2023-04-23T02:27:26;25.30;;;15.05;;
19903;SDS011;10114;50.970;4.962;2023-04-23T02:29:52;24.42;;;15.18;;
19903;SDS011;10114;50.970;4.962;2023-04-23T02:32:18;23.52;;;14.60;;
19903;SDS011;10114;50.970;4.962;2023-04-23T02:34:44;24.08;;;14.48;;
19903;SDS011;10114;50.970;4.962;2023-04-23T02:37:10;25.77;;;14.20;;
19903;SDS011;10114;50.970;4.962;2023-04-23T02:39:36;24.92;;;13.95;;
19903;SDS011;10114;50.970;4.962;2023-04-23T02:42:03;27.23;;;14.85;;
19903;SDS011;10114;50.970;4.962;2023-04-23T02:44:29;21.88;;;13.40;;
19903;SDS011;10114;50.970;4.962;2023-04-23T02:46:55;22.63;;;14.20;;
19903;SDS011;10114;50.970;4.962;2023-04-23T02:49:21;23.27;;;14.45;;
19903;SDS011;10114;50.970;4.962;2023-04-23T02:51:47;24.83;;;14.00;;
19903;SDS011;10114;50.970;4.962;2023-04-23T02:54:13;22.00;;;14.45;;
19903;SDS011;10114;50.970;4.962;2023-04-23T02:56:39;28.40;;;14.30;;
19903;SDS011;10114;50.970;4.962;2023-04-23T02:59:05;24.98;;;14.00;;
19903;SDS011;10114;50.970;4.962;2023-04-23T03:01:32;26.48;;;13.93;;
19903;SDS011;10114;50.970;4.962;2023-04-23T03:03:58;24.67;;;14.40;;
19903;SDS011;10114;50.970;4.962;2023-04-23T03:06:25;23.83;;;14.25;;
19903;SDS011;10114;50.970;4.962;2023-04-23T03:08:51;25.15;;;14.18;;
19903;SDS011;10114;50.970;4.962;2023-04-23T03:11:17;24.27;;;14.10;;
19903;SDS011;10114;50.970;4.962;2023-04-23T03:13:43;24.98;;;14.93;;
19903;SDS011;10114;50.970;4.962;2023-04-23T03:16:09;26.67;;;14.05;;
19903;SDS011;10114;50.970;4.962;2023-04-23T03:18:35;25.52;;;14.20;;
19903;SDS011;10114;50.970;4.962;2023-04-23T03:21:02;24.80;;;14.27;;
19903;SDS011;10114;50.970;4.962;2023-04-23T03:23:28;23.30;;;13.43;;
19903;SDS011;10114;50.970;4.962;2023-04-23T03:25:54;26.98;;;13.02;;
19903;SDS011;10114;50.970;4.962;2023-04-23T03:28:20;20.60;;;12.52;;
19903;SDS011;10114;50.970;4.962;2023-04-23T03:30:46;23.23;;;13.52;;
19903;SDS011;10114;50.970;4.962;2023-04-23T03:33:12;24.17;;;13.80;;
19903;SDS011;10114;50.970;4.962;2023-04-23T03:35:38;23.25;;;12.75;;
19903;SDS011;10114;50.970;4.962;2023-04-23T03:38:04;23.77;;;13.68;;
19903;SDS011;10114;50.970;4.962;2023-04-23T03:40:30;22.65;;;12.35;;
19903;SDS011;10114;50.970;4.962;2023-04-23T03:42:56;22.00;;;13.10;;
19903;SDS011;10114;50.970;4.962;2023-04-23T03:45:24;23.88;;;13.70;;
19903;SDS011;10114;50.970;4.962;2023-04-23T03:47:50;23.33;;;12.85;;
19903;SDS011;10114;50.970;4.962;2023-04-23T03:50:16;23.70;;;13.18;;
19903;SDS011;10114;50.970;4.962;2023-04-23T03:52:42;24.88;;;13.27;;
19903;SDS011;10114;50.970;4.962;2023-04-23T03:55:08;23.42;;;12.77;;
19903;SDS011;10114;50.970;4.962;2023-04-23T03:57:34;22.42;;;12.38;;
19903;SDS011;10114;50.970;4.962;2023-04-23T04:00:01;23.25;;;13.13;;
19903;SDS011;10114;50.970;4.962;2023-04-23T04:02:27;21.48;;;12.65;;
19903;SDS011;10114;50.970;4.962;2023-04-23T04:04:53;20.38;;;11.75;;
19903;SDS011;10114;50.970;4.962;2023-04-23T04:07:20;24.55;;;12.75;;
19903;SDS011;10114;50.970;4.962;2023-04-23T04:09:46;23.80;;;12.75;;
19903;SDS011;10114;50.970;4.962;2023-04-23T04:12:13;20.80;;;11.98;;
19903;SDS011;10114;50.970;4.962;2023-04-23T04:14:40;24.55;;;13.20;;
19903;SDS011;10114;50.970;4.962;2023-04-23T04:17:06;22.42;;;12.75;;
19903;SDS011;10114;50.970;4.962;2023-04-23T04:19:32;21.23;;;12.55;;
19903;SDS011;10114;50.970;4.962;2023-04-23T04:21:58;18.88;;;10.63;;
19903;SDS011;10114;50.970;4.962;2023-04-23T04:24:26;23.08;;;12.68;;
19903;SDS011;10114;50.970;4.962;2023-04-23T04:26:56;20.77;;;11.48;;
19903;SDS011;10114;50.970;4.962;2023-04-23T04:29:22;19.40;;;11.05;;
19903;SDS011;10114;50.970;4.962;2023-04-23T04:31:48;21.80;;;11.98;;
19903;SDS011;10114;50.970;4.962;2023-04-23T04:34:15;23.15;;;11.55;;
19903;SDS011;10114;50.970;4.962;2023-04-23T04:36:42;23.83;;;11.80;;
19903;SDS011;10114;50.970;4.962;2023-04-23T04:39:08;21.05;;;12.02;;
19903;SDS011;10114;50.970;4.962;2023-04-23T04:41:35;18.88;;;10.75;;
19903;SDS011;10114;50.970;4.962;2023-04-23T04:44:01;22.55;;;12.57;;
19903;SDS011;10114;50.970;4.962;2023-04-23T04:46:27;23.02;;;12.23;;
19903;SDS011;10114;50.970;4.962;2023-04-23T04:48:53;23.00;;;11.85;;
19903;SDS011;10114;50.970;4.962;2023-04-23T04:51:20;20.70;;;11.45;;
19903;SDS011;10114;50.970;4.962;2023-04-23T04:53:46;18.92;;;11.00;;
19903;SDS011;10114;50.970;4.962;2023-04-23T04:56:12;21.08;;;10.82;;
19903;SDS011;10114;50.970;4.962;2023-04-23T04:58:38;17.08;;;10.48;;
19903;SDS011;10114;50.970;4.962;2023-04-23T05:01:04;20.83;;;10.23;;
19903;SDS011;10114;50.970;4.962;2023-04-23T05:03:31;22.88;;;14.18;;
19903;SDS011;10114;50.970;4.962;2023-04-23T05:05:57;20.75;;;12.02;;
19903;SDS011;10114;50.970;4.962;2023-04-23T05:08:23;19.48;;;10.52;;
19903;SDS011;10114;50.970;4.962;2023-04-23T05:10:49;21.02;;;11.15;;
19903;SDS011;10114;50.970;4.962;2023-04-23T05:13:15;21.63;;;10.45;;
19903;SDS011;10114;50.970;4.962;2023-04-23T05:15:42;20.48;;;11.05;;
19903;SDS011;10114;50.970;4.962;2023-04-23T05:18:08;18.65;;;10.90;;
19903;SDS011;10114;50.970;4.962;2023-04-23T05:20:34;18.67;;;10.93;;
19903;SDS011;10114;50.970;4.962;2023-04-23T05:23:01;17.40;;;9.75;;
19903;SDS011;10114;50.970;4.962;2023-04-23T05:25:30;18.15;;;9.70;;
19903;SDS011;10114;50.970;4.962;2023-04-23T05:27:56;18.17;;;10.27;;
19903;SDS011;10114;50.970;4.962;2023-04-23T05:30:22;18.52;;;10.02;;
19903;SDS011;10114;50.970;4.962;2023-04-23T05:32:49;18.17;;;10.57;;
19903;SDS011;10114;50.970;4.962;2023-04-23T05:35:15;21.38;;;9.75;;
19903;SDS011;10114;50.970;4.962;2023-04-23T05:37:41;16.98;;;10.45;;
19903;SDS011;10114;50.970;4.962;2023-04-23T05:40:07;17.35;;;10.00;;
19903;SDS011;10114;50.970;4.962;2023-04-23T05:42:34;15.60;;;8.73;;
19903;SDS011;10114;50.970;4.962;2023-04-23T05:45:00;16.75;;;9.25;;
19903;SDS011;10114;50.970;4.962;2023-04-23T05:47:27;17.17;;;9.02;;
19903;SDS011;10114;50.970;4.962;2023-04-23T05:49:53;17.13;;;9.02;;
19903;SDS011;10114;50.970;4.962;2023-04-23T05:52:21;14.30;;;8.50;;
19903;SDS011;10114;50.970;4.962;2023-04-23T05:54:47;17.13;;;8.48;;
19903;SDS011;10114;50.970;4.962;2023-04-23T05:57:13;16.17;;;8.52;;
19903;SDS011;10114;50.970;4.962;2023-04-23T05:59:39;15.00;;;8.18;;
19903;SDS011;10114;50.970;4.962;2023-04-23T06:02:06;14.75;;;8.48;;
19903;SDS011;10114;50.970;4.962;2023-04-23T06:04:32;16.40;;;8.75;;
19903;SDS011;10114;50.970;4.962;2023-04-23T06:06:58;13.75;;;8.25;;
19903;SDS011;10114;50.970;4.962;2023-04-23T06:09:24;14.32;;;8.60;;
19903;SDS011;10114;50.970;4.962;2023-04-23T06:11:51;17.85;;;8.20;;
19903;SDS011;10114;50.970;4.962;2023-04-23T06:14:17;14.70;;;7.90;;
19903;SDS011;10114;50.970;4.962;2023-04-23T06:16:43;16.98;;;8.60;;
19903;SDS011;10114;50.970;4.962;2023-04-23T06:19:09;18.25;;;7.80;;
19903;SDS011;10114;50.970;4.962;2023-04-23T06:21:35;14.93;;;6.88;;
19903;SDS011;10114;50.970;4.962;2023-04-23T06:24:02;13.48;;;7.13;;
19903;SDS011;10114;50.970;4.962;2023-04-23T06:26:28;13.60;;;7.25;;
19903;SDS011;10114;50.970;4.962;2023-04-23T06:28:54;11.63;;;6.90;;
19903;SDS011;10114;50.970;4.962;2023-04-23T06:31:20;13.50;;;7.25;;
19903;SDS011;10114;50.970;4.962;2023-04-23T06:33:46;13.50;;;7.20;;
19903;SDS011;10114;50.970;4.962;2023-04-23T06:36:12;12.38;;;6.35;;
19903;SDS011;10114;50.970;4.962;2023-04-23T06:38:38;13.45;;;6.32;;
19903;SDS011;10114;50.970;4.962;2023-04-23T06:41:05;13.75;;;6.55;;
19903;SDS011;10114;50.970;4.962;2023-04-23T06:43:31;11.65;;;5.60;;
19903;SDS011;10114;50.970;4.962;2023-04-23T06:45:58;11.55;;;5.72;;
19903;SDS011;10114;50.970;4.962;2023-04-23T06:48:24;11.45;;;5.78;;
19903;SDS011;10114;50.970;4.962;2023-04-23T06:50:50;11.13;;;5.70;;
19903;SDS011;10114;50.970;4.962;2023-04-23T06:53:16;11.50;;;4.80;;
19903;SDS011;10114;50.970;4.962;2023-04-23T06:55:42;11.57;;;5.47;;
19903;SDS011;10114;50.970;4.962;2023-04-23T06:58:09;11.50;;;5.47;;
19903;SDS011;10114;50.970;4.962;2023-04-23T07:00:35;10.77;;;5.13;;
19903;SDS011;10114;50.970;4.962;2023-04-23T07:03:01;8.88;;;4.90;;
19903;SDS011;10114;50.970;4.962;2023-04-23T07:05:27;13.13;;;4.50;;
19903;SDS011;10114;50.970;4.962;2023-04-23T07:07:53;7.93;;;4.32;;
19903;SDS011;10114;50.970;4.962;2023-04-23T07:10:20;13.23;;;4.40;;
19903;SDS011;10114;50.970;4.962;2023-04-23T07:12:46;9.57;;;4.45;;
19903;SDS011;10114;50.970;4.962;2023-04-23T07:15:12;10.27;;;4.50;;
19903;SDS011;10114;50.970;4.962;2023-04-23T07:17:38;14.73;;;4.80;;
19903;SDS011;10114;50.970;4.962;2023-04-23T07:20:05;12.43;;;4.03;;
19903;SDS011;10114;50.970;4.962;2023-04-23T07:22:32;7.03;;;3.55;;
19903;SDS011;10114;50.970;4.962;2023-04-23T07:24:58;9.75;;;4.35;;
19903;SDS011;10114;50.970;4.962;2023-04-23T07:27:24;12.75;;;4.38;;
19903;SDS011;10114;50.970;4.962;2023-04-23T07:29:50;14.20;;;4.03;;
19903;SDS011;10114;50.970;4.962;2023-04-23T07:32:17;13.20;;;4.07;;
19903;SDS011;10114;50.970;4.962;2023-04-23T07:34:43;8.90;;;3.60;;
19903;SDS011;10114;50.970;4.962;2023-04-23T07:37:09;11.43;;;3.60;;
19903;SDS011;10114;50.970;4.962;2023-04-23T07:39:35;8.45;;;3.40;;
19903;SDS011;10114;50.970;4.962;2023-04-23T07:42:01;8.43;;;2.63;;
19903;SDS011;10114;50.970;4.962;2023-04-23T07:44:27;10.13;;;3.40;;
19903;SDS011;10114;50.970;4.962;2023-04-23T07:46:53;9.75;;;2.80;;
19903;SDS011;10114;50.970;4.962;2023-04-23T07:49:19;13.57;;;3.50;;
19903;SDS011;10114;50.970;4.962;2023-04-23T07:51:46;11.43;;;3.00;;
19903;SDS011;10114;50.970;4.962;2023-04-23T07:54:13;11.35;;;3.28;;
19903;SDS011;10114;50.970;4.962;2023-04-23T07:56:38;10.68;;;3.25;;
19903;SDS011;10114;50.970;4.962;2023-04-23T07:59:04;12.95;;;2.83;;
19903;SDS011;10114;50.970;4.962;2023-04-23T08:01:31;13.38;;;3.08;;
19903;SDS011;10114;50.970;4.962;2023-04-23T08:03:58;7.80;;;2.88;;
19903;SDS011;10114;50.970;4.962;2023-04-23T08:06:24;8.60;;;2.67;;
19903;SDS011;10114;50.970;4.962;2023-04-23T08:08:51;7.85;;;3.03;;
19903;SDS011;10114;50.970;4.962;2023-04-23T08:11:19;6.72;;;2.53;;
19903;SDS011;10114;50.970;4.962;2023-04-23T08:13:46;11.57;;;3.13;;
19903;SDS011;10114;50.970;4.962;2023-04-23T08:16:12;8.88;;;3.03;;
19903;SDS011;10114;50.970;4.962;2023-04-23T08:18:38;13.68;;;3.33;;
19903;SDS011;10114;50.970;4.962;2023-04-23T08:21:04;10.52;;;2.83;;
19903;SDS011;10114;50.970;4.962;2023-04-23T08:23:30;9.13;;;2.95;;
19903;SDS011;10114;50.970;4.962;2023-04-23T08:25:56;8.43;;;2.65;;
19903;SDS011;10114;50.970;4.962;2023-04-23T08:28:22;9.18;;;3.13;;
19903;SDS011;10114;50.970;4.962;2023-04-23T08:30:48;6.95;;;2.45;;
19903;SDS011;10114;50.970;4.962;2023-04-23T08:33:14;10.95;;;2.75;;
19903;SDS011;10114;50.970;4.962;2023-04-23T08:35:40;9.23;;;2.65;;
19903;SDS011;10114;50.970;4.962;2023-04-23T08:38:06;8.63;;;2.63;;
19903;SDS011;10114;50.970;4.962;2023-04-23T08:40:33;11.40;;;2.67;;
19903;SDS011;10114;50.970;4.962;2023-04-23T08:43:02;7.70;;;2.63;;
19903;SDS011;10114;50.970;4.962;2023-04-23T08:45:28;8.68;;;2.35;;
19903;SDS011;10114;50.970;4.962;2023-04-23T08:47:57;8.52;;;2.20;;
19903;SDS011;10114;50.970;4.962;2023-04-23T08:50:23;9.95;;;2.53;;
19903;SDS011;10114;50.970;4.962;2023-04-23T08:52:53;7.88;;;2.38;;
19903;SDS011;10114;50.970;4.962;2023-04-23T08:55:19;8.40;;;2.53;;
19903;SDS011;10114;50.970;4.962;2023-04-23T08:57:46;9.68;;;2.42;;
19903;SDS011;10114;50.970;4.962;2023-04-23T09:00:13;6.28;;;2.45;;
19903;SDS011;10114;50.970;4.962;2023-04-23T09:02:40;7.88;;;2.67;;
19903;SDS011;10114;50.970;4.962;2023-04-23T09:05:06;10.43;;;2.35;;
19903;SDS011;10114;50.970;4.962;2023-04-23T09:07:33;7.32;;;2.40;;
19903;SDS011;10114;50.970;4.962;2023-04-23T09:10:00;7.53;;;2.20;;
19903;SDS011;10114;50.970;4.962;2023-04-23T09:12:26;8.48;;;2.35;;
19903;SDS011;10114;50.970;4.962;2023-04-23T09:14:52;5.32;;;2.17;;
19903;SDS011;10114;50.970;4.962;2023-04-23T09:17:18;8.10;;;2.45;;
19903;SDS011;10114;50.970;4.962;2023-04-23T09:19:45;10.02;;;2.17;;
19903;SDS011;10114;50.970;4.962;2023-04-23T09:22:11;10.43;;;3.08;;
19903;SDS011;10114;50.970;4.962;2023-04-23T09:24:40;5.70;;;2.05;;
19903;SDS011;10114;50.970;4.962;2023-04-23T09:27:09;7.97;;;2.50;;
19903;SDS011;10114;50.970;4.962;2023-04-23T09:29:35;7.60;;;2.22;;
19903;SDS011;10114;50.970;4.962;2023-04-23T09:32:05;10.30;;;2.40;;
19903;SDS011;10114;50.970;4.962;2023-04-23T09:34:33;11.57;;;1.90;;
19903;SDS011;10114;50.970;4.962;2023-04-23T09:37:00;7.88;;;1.73;;
19903;SDS011;10114;50.970;4.962;2023-04-23T09:39:28;6.72;;;1.95;;
19903;SDS011;10114;50.970;4.962;2023-04-23T09:41:54;5.15;;;1.80;;
19903;SDS011;10114;50.970;4.962;2023-04-23T09:44:29;7.82;;;2.17;;
19903;SDS011;10114;50.970;4.962;2023-04-23T09:46:56;4.30;;;1.38;;
19903;SDS011;10114;50.970;4.962;2023-04-23T09:49:30;8.73;;;2.08;;
19903;SDS011;10114;50.970;4.962;2023-04-23T09:51:56;8.57;;;1.98;;
19903;SDS011;10114;50.970;4.962;2023-04-23T09:54:30;6.43;;;1.95;;
19903;SDS011;10114;50.970;4.962;2023-04-23T09:56:56;10.05;;;1.90;;
19903;SDS011;10114;50.970;4.962;2023-04-23T09:59:29;6.25;;;1.42;;
19903;SDS011;10114;50.970;4.962;2023-04-23T10:01:55;8.40;;;1.60;;
19903;SDS011;10114;50.970;4.962;2023-04-23T10:04:23;7.10;;;1.50;;
19903;SDS011;10114;50.970;4.962;2023-04-23T10:06:56;6.82;;;1.50;;
19903;SDS011;10114;50.970;4.962;2023-04-23T10:09:23;8.30;;;1.95;;
19903;SDS011;10114;50.970;4.962;2023-04-23T10:11:59;5.47;;;1.80;;
19903;SDS011;10114;50.970;4.962;2023-04-23T10:14:26;8.77;;;1.95;;
19903;SDS011;10114;50.970;4.962;2023-04-23T10:17:02;4.30;;;1.25;;
19903;SDS011;10114;50.970;4.962;2023-04-23T10:19:29;5.97;;;1.42;;
19903;SDS011;10114;50.970;4.962;2023-04-23T10:21:56;6.65;;;1.40;;
19903;SDS011;10114;50.970;4.962;2023-04-23T10:24:25;5.28;;;1.40;;
19903;SDS011;10114;50.970;4.962;2023-04-23T10:26:58;8.55;;;1.67;;
19903;SDS011;10114;50.970;4.962;2023-04-23T10:29:28;8.55;;;1.70;;
19903;SDS011;10114;50.970;4.962;2023-04-23T10:31:55;9.52;;;1.60;;
19903;SDS011;10114;50.970;4.962;2023-04-23T10:34:22;7.55;;;1.48;;
19903;SDS011;10114;50.970;4.962;2023-04-23T10:36:49;13.40;;;1.92;;
19903;SDS011;10114;50.970;4.962;2023-04-23T10:39:16;7.75;;;1.65;;
19903;SDS011;10114;50.970;4.962;2023-04-23T10:41:43;8.73;;;1.23;;
19903;SDS011;10114;50.970;4.962;2023-04-23T10:44:13;9.63;;;1.67;;
19903;SDS011;10114;50.970;4.962;2023-04-23T10:46:49;6.28;;;1.60;;
19903;SDS011;10114;50.970;4.962;2023-04-23T10:49:15;6.95;;;1.58;;
19903;SDS011;10114;50.970;4.962;2023-04-23T10:51:41;6.55;;;1.30;;
19903;SDS011;10114;50.970;4.962;2023-04-23T10:54:12;13.38;;;2.58;;
19903;SDS011;10114;50.970;4.962;2023-04-23T10:56:39;4.97;;;1.20;;
19903;SDS011;10114;50.970;4.962;2023-04-23T11:01:50;7.07;;;1.33;;
19903;SDS011;10114;50.970;4.962;2023-04-23T11:04:23;7.88;;;1.45;;
19903;SDS011;10114;50.970;4.962;2023-04-23T11:07:11;8.57;;;1.27;;
19903;SDS011;10114;50.970;4.962;2023-04-23T11:12:04;9.07;;;1.55;;
19903;SDS011;10114;50.970;4.962;2023-04-23T11:14:40;5.75;;;1.23;;
19903;SDS011;10114;50.970;4.962;2023-04-23T11:17:06;6.47;;;1.27;;
19903;SDS011;10114;50.970;4.962;2023-04-23T11:19:36;8.70;;;1.35;;
19903;SDS011;10114;50.970;4.962;2023-04-23T11:22:03;7.93;;;1.58;;
19903;SDS011;10114;50.970;4.962;2023-04-23T11:24:36;6.00;;;1.20;;
19903;SDS011;10114;50.970;4.962;2023-04-23T11:27:07;4.75;;;1.20;;
19903;SDS011;10114;50.970;4.962;2023-04-23T11:29:33;6.93;;;1.15;;
19903;SDS011;10114;50.970;4.962;2023-04-23T11:31:59;5.07;;;1.13;;
19903;SDS011;10114;50.970;4.962;2023-04-23T11:34:25;6.47;;;1.58;;
19903;SDS011;10114;50.970;4.962;2023-04-23T11:36:53;6.35;;;1.25;;
19903;SDS011;10114;50.970;4.962;2023-04-23T11:39:22;4.80;;;0.95;;
19903;SDS011;10114;50.970;4.962;2023-04-23T11:41:51;9.88;;;1.45;;
19903;SDS011;10114;50.970;4.962;2023-04-23T11:44:20;10.88;;;1.30;;
19903;SDS011;10114;50.970;4.962;2023-04-23T11:46:47;11.38;;;1.25;;
19903;SDS011;10114;50.970;4.962;2023-04-23T11:49:13;4.85;;;0.90;;
19903;SDS011;10114;50.970;4.962;2023-04-23T11:51:41;6.93;;;1.30;;
19903;SDS011;10114;50.970;4.962;2023-04-23T11:54:10;5.80;;;1.25;;
19903;SDS011;10114;50.970;4.962;2023-04-23T11:56:37;7.93;;;1.30;;
19903;SDS011;10114;50.970;4.962;2023-04-23T11:59:04;8.60;;;1.60;;
19903;SDS011;10114;50.970;4.962;2023-04-23T12:07:04;10.02;;;2.45;;
19903;SDS011;10114;50.970;4.962;2023-04-23T12:09:30;6.55;;;1.48;;
19903;SDS011;10114;50.970;4.962;2023-04-23T12:11:56;7.53;;;1.55;;
19903;SDS011;10114;50.970;4.962;2023-04-23T12:14:26;6.38;;;0.90;;
19903;SDS011;10114;50.970;4.962;2023-04-23T12:16:53;7.65;;;1.30;;
19903;SDS011;10114;50.970;4.962;2023-04-23T12:19:29;9.02;;;1.15;;
19903;SDS011;10114;50.970;4.962;2023-04-23T12:21:56;6.80;;;1.50;;
19903;SDS011;10114;50.970;4.962;2023-04-23T12:24:23;7.80;;;1.95;;
19903;SDS011;10114;50.970;4.962;2023-04-23T12:26:53;5.88;;;1.30;;
19903;SDS011;10114;50.970;4.962;2023-04-23T12:29:20;6.72;;;1.40;;
19903;SDS011;10114;50.970;4.962;2023-04-23T12:31:47;6.28;;;1.35;;
19903;SDS011;10114;50.970;4.962;2023-04-23T12:34:14;6.00;;;1.27;;
19903;SDS011;10114;50.970;4.962;2023-04-23T12:36:43;8.10;;;1.55;;
19903;SDS011;10114;50.970;4.962;2023-04-23T12:39:26;7.45;;;1.25;;
19903;SDS011;10114;50.970;4.962;2023-04-23T12:44:24;5.05;;;1.23;;
19903;SDS011;10114;50.970;4.962;2023-04-23T12:47:00;6.75;;;1.25;;
19903;SDS011;10114;50.970;4.962;2023-04-23T12:49:30;9.15;;;1.63;;
19903;SDS011;10114;50.970;4.962;2023-04-23T12:51:56;7.47;;;1.40;;
19903;SDS011;10114;50.970;4.962;2023-04-23T12:54:25;7.53;;;1.67;;
19903;SDS011;10114;50.970;4.962;2023-04-23T12:56:51;5.95;;;1.20;;
19903;SDS011;10114;50.970;4.962;2023-04-23T12:59:18;8.15;;;1.77;;
19903;SDS011;10114;50.970;4.962;2023-04-23T13:01:44;5.90;;;1.42;;
19903;SDS011;10114;50.970;4.962;2023-04-23T13:04:10;4.53;;;1.23;;
19903;SDS011;10114;50.970;4.962;2023-04-23T13:06:36;7.00;;;1.50;;
19903;SDS011;10114;50.970;4.962;2023-04-23T13:09:02;6.50;;;1.17;;
19903;SDS011;10114;50.970;4.962;2023-04-23T13:11:29;4.93;;;1.88;;
19903;SDS011;10114;50.970;4.962;2023-04-23T13:13:56;5.93;;;1.38;;
19903;SDS011;10114;50.970;4.962;2023-04-23T13:16:22;3.80;;;1.17;;
19903;SDS011;10114;50.970;4.962;2023-04-23T13:18:48;4.35;;;1.10;;
19903;SDS011;10114;50.970;4.962;2023-04-23T13:21:18;6.68;;;1.70;;
19903;SDS011;10114;50.970;4.962;2023-04-23T13:23:44;8.48;;;1.30;;
19903;SDS011;10114;50.970;4.962;2023-04-23T13:26:10;5.60;;;1.38;;
19903;SDS011;10114;50.970;4.962;2023-04-23T13:28:36;7.28;;;1.70;;
19903;SDS011;10114;50.970;4.962;2023-04-23T13:31:02;5.57;;;1.40;;
19903;SDS011;10114;50.970;4.962;2023-04-23T13:33:29;10.23;;;1.40;;
19903;SDS011;10114;50.970;4.962;2023-04-23T13:35:55;6.82;;;1.83;;
19903;SDS011;10114;50.970;4.962;2023-04-23T13:38:22;5.18;;;1.60;;
19903;SDS011;10114;50.970;4.962;2023-04-23T13:40:49;8.40;;;1.92;;
19903;SDS011;10114;50.970;4.962;2023-04-23T13:43:15;6.90;;;2.40;;
19903;SDS011;10114;50.970;4.962;2023-04-23T13:45:41;8.48;;;1.70;;
19903;SDS011;10114;50.970;4.962;2023-04-23T13:48:07;6.10;;;1.80;;
19903;SDS011;10114;50.970;4.962;2023-04-23T13:50:33;5.07;;;1.20;;
19903;SDS011;10114;50.970;4.962;2023-04-23T13:52:59;6.22;;;1.58;;
19903;SDS011;10114;50.970;4.962;2023-04-23T13:55:25;7.40;;;1.98;;
19903;SDS011;10114;50.970;4.962;2023-04-23T13:57:52;5.80;;;1.40;;
19903;SDS011;10114;50.970;4.962;2023-04-23T14:00:21;4.38;;;1.40;;
19903;SDS011;10114;50.970;4.962;2023-04-23T14:02:48;8.50;;;2.25;;
19903;SDS011;10114;50.970;4.962;2023-04-23T14:05:14;5.53;;;1.83;;
19903;SDS011;10114;50.970;4.962;2023-04-23T14:07:40;7.28;;;2.85;;
19903;SDS011;10114;50.970;4.962;2023-04-23T14:10:06;8.07;;;3.08;;
19903;SDS011;10114;50.970;4.962;2023-04-23T14:12:32;5.15;;;2.03;;
19903;SDS011;10114;50.970;4.962;2023-04-23T14:14:58;8.20;;;1.95;;
19903;SDS011;10114;50.970;4.962;2023-04-23T14:17:24;7.60;;;1.85;;
19903;SDS011;10114;50.970;4.962;2023-04-23T14:19:50;8.20;;;2.03;;
19903;SDS011;10114;50.970;4.962;2023-04-23T14:22:16;4.22;;;1.77;;
19903;SDS011;10114;50.970;4.962;2023-04-23T14:24:45;6.85;;;1.40;;
19903;SDS011;10114;50.970;4.962;2023-04-23T14:27:14;7.43;;;1.58;;
19903;SDS011;10114;50.970;4.962;2023-04-23T14:29:40;10.80;;;1.70;;
19903;SDS011;10114;50.970;4.962;2023-04-23T14:32:10;7.90;;;1.73;;
19903;SDS011;10114;50.970;4.962;2023-04-23T14:34:37;3.70;;;1.40;;
19903;SDS011;10114;50.970;4.962;2023-04-23T14:37:03;4.25;;;1.30;;
19903;SDS011;10114;50.970;4.962;2023-04-23T14:39:30;3.53;;;1.63;;
19903;SDS011;10114;50.970;4.962;2023-04-23T14:41:56;5.50;;;1.40;;
19903;SDS011;10114;50.970;4.962;2023-04-23T14:44:22;5.30;;;1.80;;
19903;SDS011;10114;50.970;4.962;2023-04-23T14:46:50;5.97;;;1.67;;